sensor_id;sensor_type;location;lat;lon;timestamp;P1;durP1;ratioP1;P2;durP2;ratioP2
28245;SDS011;15510;52.512;13.300;2022-11-20T00:00:54;16.13;;;10.43;;
28245;SDS011;15510;52.512;13.300;2022-11-20T00:03:20;13.87;;;10.27;;
28245;SDS011;15510;52.512;13.300;2022-11-20T00:05:45;16.47;;;10.23;;
28245;SDS011;15510;52.512;13.300;2022-11-20T00:08:11;14.83;;;9.97;;
28245;SDS011;15510;52.512;13.300;2022-11-20T00:10:37;15.30;;;9.97;;
28245;SDS011;15510;52.512;13.300;2022-11-20T00:13:06;14.43;;;9.63;;
28245;SDS011;15510;52.512;13.300;2022-11-20T00:15:32;14.23;;;9.30;;
28245;SDS011;15510;52.512;13.300;2022-11-20T00:17:58;15.33;;;9.83;;
28245;SDS011;15510;52.512;13.300;2022-11-20T00:20:24;14.40;;;10.03;;
28245;SDS011;15510;52.512;13.300;2022-11-20T00:22:50;14.53;;;9.77;;
28245;SDS011;15510;52.512;13.300;2022-11-20T00:25:16;13.57;;;9.20;;
28245;SDS011;15510;52.512;13.300;2022-11-20T00:27:42;16.33;;;9.50;;
28245;SDS011;15510;52.512;13.300;2022-11-20T00:30:08;11.63;;;8.60;;
28245;SDS011;15510;52.512;13.300;2022-11-20T00:32:34;17.13;;;9.53;;
28245;SDS011;15510;52.512;13.300;2022-11-20T00:35:01;14.07;;;8.60;;
28245;SDS011;15510;52.512;13.300;2022-11-20T00:37:27;15.83;;;9.33;;
28245;SDS011;15510;52.512;13.300;2022-11-20T00:39:52;13.80;;;8.87;;
28245;SDS011;15510;52.512;13.300;2022-11-20T00:42:18;15.33;;;9.37;;
28245;SDS011;15510;52.512;13.300;2022-11-20T00:44:44;12.10;;;8.60;;
28245;SDS011;15510;52.512;13.300;2022-11-20T00:47:10;11.70;;;8.77;;
28245;SDS011;15510;52.512;13.300;2022-11-20T00:49:36;12.23;;;9.07;;
28245;SDS011;15510;52.512;13.300;2022-11-20T00:52:02;13.93;;;9.47;;
28245;SDS011;15510;52.512;13.300;2022-11-20T00:54:27;12.93;;;9.00;;
28245;SDS011;15510;52.512;13.300;2022-11-20T00:56:53;14.90;;;9.80;;
28245;SDS011;15510;52.512;13.300;2022-11-20T00:59:21;12.13;;;9.00;;
28245;SDS011;15510;52.512;13.300;2022-11-20T01:01:47;21.50;;;9.67;;
28245;SDS011;15510;52.512;13.300;2022-11-20T01:04:13;11.90;;;8.53;;
28245;SDS011;15510;52.512;13.300;2022-11-20T01:06:39;13.37;;;9.37;;
28245;SDS011;15510;52.512;13.300;2022-11-20T01:09:06;12.60;;;9.13;;
28245;SDS011;15510;52.512;13.300;2022-11-20T01:11:36;13.87;;;9.07;;
28245;SDS011;15510;52.512;13.300;2022-11-20T01:14:04;15.40;;;9.27;;
28245;SDS011;15510;52.512;13.300;2022-11-20T01:16:34;15.37;;;9.07;;
28245;SDS011;15510;52.512;13.300;2022-11-20T01:19:05;12.93;;;8.83;;
28245;SDS011;15510;52.512;13.300;2022-11-20T01:21:33;11.87;;;8.10;;
28245;SDS011;15510;52.512;13.300;2022-11-20T01:24:01;12.70;;;9.43;;
28245;SDS011;15510;52.512;13.300;2022-11-20T01:26:29;15.60;;;9.73;;
28245;SDS011;15510;52.512;13.300;2022-11-20T01:28:57;12.80;;;9.30;;
28245;SDS011;15510;52.512;13.300;2022-11-20T01:31:25;13.00;;;9.90;;
28245;SDS011;15510;52.512;13.300;2022-11-20T01:33:56;13.53;;;9.27;;
28245;SDS011;15510;52.512;13.300;2022-11-20T01:36:27;12.77;;;9.33;;
28245;SDS011;15510;52.512;13.300;2022-11-20T01:38:55;15.57;;;10.03;;
28245;SDS011;15510;52.512;13.300;2022-11-20T01:41:23;14.70;;;9.80;;
28245;SDS011;15510;52.512;13.300;2022-11-20T01:44:09;13.70;;;9.33;;
28245;SDS011;15510;52.512;13.300;2022-11-20T01:46:38;14.43;;;10.00;;
28245;SDS011;15510;52.512;13.300;2022-11-20T01:49:11;12.20;;;8.50;;
28245;SDS011;15510;52.512;13.300;2022-11-20T01:51:44;13.33;;;9.73;;
28245;SDS011;15510;52.512;13.300;2022-11-20T01:54:18;15.00;;;10.63;;
28245;SDS011;15510;52.512;13.300;2022-11-20T01:56:48;14.23;;;9.97;;
28245;SDS011;15510;52.512;13.300;2022-11-20T01:59:18;15.17;;;10.53;;
28245;SDS011;15510;52.512;13.300;2022-11-20T02:01:45;12.93;;;9.17;;
28245;SDS011;15510;52.512;13.300;2022-11-20T02:04:11;13.50;;;9.63;;
28245;SDS011;15510;52.512;13.300;2022-11-20T02:06:40;13.13;;;9.57;;
28245;SDS011;15510;52.512;13.300;2022-11-20T02:09:11;18.23;;;10.73;;
28245;SDS011;15510;52.512;13.300;2022-11-20T02:11:37;14.73;;;9.60;;
28245;SDS011;15510;52.512;13.300;2022-11-20T02:14:02;16.33;;;10.33;;
28245;SDS011;15510;52.512;13.300;2022-11-20T02:16:30;12.87;;;9.87;;
28245;SDS011;15510;52.512;13.300;2022-11-20T02:19:01;13.80;;;9.77;;
28245;SDS011;15510;52.512;13.300;2022-11-20T02:24:27;15.40;;;10.07;;
28245;SDS011;15510;52.512;13.300;2022-11-20T02:26:53;13.80;;;9.93;;
28245;SDS011;15510;52.512;13.300;2022-11-20T02:29:25;14.90;;;10.87;;
28245;SDS011;15510;52.512;13.300;2022-11-20T02:31:55;18.00;;;11.33;;
28245;SDS011;15510;52.512;13.300;2022-11-20T02:34:23;16.50;;;11.10;;
28245;SDS011;15510;52.512;13.300;2022-11-20T02:36:49;14.50;;;10.67;;
28245;SDS011;15510;52.512;13.300;2022-11-20T02:39:17;17.83;;;10.97;;
28245;SDS011;15510;52.512;13.300;2022-11-20T02:41:45;16.87;;;11.63;;
28245;SDS011;15510;52.512;13.300;2022-11-20T02:44:11;16.63;;;11.50;;
28245;SDS011;15510;52.512;13.300;2022-11-20T02:46:37;15.30;;;11.30;;
28245;SDS011;15510;52.512;13.300;2022-11-20T02:49:03;16.40;;;10.97;;
28245;SDS011;15510;52.512;13.300;2022-11-20T02:51:30;15.67;;;10.90;;
28245;SDS011;15510;52.512;13.300;2022-11-20T02:53:56;15.40;;;10.20;;
28245;SDS011;15510;52.512;13.300;2022-11-20T02:56:22;19.23;;;11.07;;
28245;SDS011;15510;52.512;13.300;2022-11-20T02:58:49;17.00;;;10.83;;
28245;SDS011;15510;52.512;13.300;2022-11-20T03:01:14;19.53;;;11.57;;
28245;SDS011;15510;52.512;13.300;2022-11-20T03:03:40;16.83;;;11.30;;
28245;SDS011;15510;52.512;13.300;2022-11-20T03:06:06;15.07;;;10.73;;
28245;SDS011;15510;52.512;13.300;2022-11-20T03:08:32;15.93;;;11.03;;
28245;SDS011;15510;52.512;13.300;2022-11-20T03:11:05;17.27;;;11.10;;
28245;SDS011;15510;52.512;13.300;2022-11-20T03:13:32;17.43;;;11.40;;
28245;SDS011;15510;52.512;13.300;2022-11-20T03:15:58;18.70;;;11.70;;
28245;SDS011;15510;52.512;13.300;2022-11-20T03:18:29;16.20;;;10.97;;
28245;SDS011;15510;52.512;13.300;2022-11-20T03:20:58;14.40;;;10.70;;
28245;SDS011;15510;52.512;13.300;2022-11-20T03:23:24;16.87;;;11.07;;
28245;SDS011;15510;52.512;13.300;2022-11-20T03:25:50;18.93;;;12.17;;
28245;SDS011;15510;52.512;13.300;2022-11-20T03:28:16;16.47;;;11.83;;
28245;SDS011;15510;52.512;13.300;2022-11-20T03:30:41;18.33;;;12.03;;
28245;SDS011;15510;52.512;13.300;2022-11-20T03:33:07;19.43;;;11.50;;
28245;SDS011;15510;52.512;13.300;2022-11-20T03:35:33;16.37;;;10.97;;
28245;SDS011;15510;52.512;13.300;2022-11-20T03:37:58;17.33;;;11.90;;
28245;SDS011;15510;52.512;13.300;2022-11-20T03:40:24;16.53;;;11.80;;
28245;SDS011;15510;52.512;13.300;2022-11-20T03:42:50;21.57;;;11.77;;
28245;SDS011;15510;52.512;13.300;2022-11-20T03:45:16;18.57;;;11.40;;
28245;SDS011;15510;52.512;13.300;2022-11-20T03:47:43;19.70;;;12.17;;
28245;SDS011;15510;52.512;13.300;2022-11-20T03:50:09;14.83;;;10.80;;
28245;SDS011;15510;52.512;13.300;2022-11-20T03:52:38;16.67;;;11.40;;
28245;SDS011;15510;52.512;13.300;2022-11-20T03:55:04;15.33;;;10.70;;
28245;SDS011;15510;52.512;13.300;2022-11-20T03:57:31;18.43;;;11.90;;
28245;SDS011;15510;52.512;13.300;2022-11-20T03:59:56;16.23;;;11.37;;
28245;SDS011;15510;52.512;13.300;2022-11-20T04:02:22;15.70;;;11.80;;
28245;SDS011;15510;52.512;13.300;2022-11-20T04:04:48;17.43;;;12.03;;
28245;SDS011;15510;52.512;13.300;2022-11-20T04:07:13;15.73;;;11.80;;
28245;SDS011;15510;52.512;13.300;2022-11-20T04:09:39;17.73;;;11.43;;
28245;SDS011;15510;52.512;13.300;2022-11-20T04:12:05;17.07;;;12.10;;
28245;SDS011;15510;52.512;13.300;2022-11-20T04:14:30;20.07;;;11.73;;
28245;SDS011;15510;52.512;13.300;2022-11-20T04:16:56;17.80;;;11.27;;
28245;SDS011;15510;52.512;13.300;2022-11-20T04:19:22;16.37;;;11.83;;
28245;SDS011;15510;52.512;13.300;2022-11-20T04:21:47;15.67;;;11.53;;
28245;SDS011;15510;52.512;13.300;2022-11-20T04:24:13;17.60;;;12.43;;
28245;SDS011;15510;52.512;13.300;2022-11-20T04:26:39;20.23;;;11.83;;
28245;SDS011;15510;52.512;13.300;2022-11-20T04:29:05;17.53;;;12.47;;
28245;SDS011;15510;52.512;13.300;2022-11-20T04:31:32;16.50;;;12.23;;
28245;SDS011;15510;52.512;13.300;2022-11-20T04:34:00;18.73;;;12.67;;
28245;SDS011;15510;52.512;13.300;2022-11-20T04:36:30;15.53;;;10.77;;
28245;SDS011;15510;52.512;13.300;2022-11-20T04:38:59;18.10;;;12.17;;
28245;SDS011;15510;52.512;13.300;2022-11-20T04:41:28;17.50;;;11.73;;
28245;SDS011;15510;52.512;13.300;2022-11-20T04:43:56;19.43;;;12.70;;
28245;SDS011;15510;52.512;13.300;2022-11-20T04:46:28;17.67;;;11.83;;
28245;SDS011;15510;52.512;13.300;2022-11-20T04:48:56;15.67;;;11.47;;
28245;SDS011;15510;52.512;13.300;2022-11-20T04:51:22;19.13;;;12.20;;
28245;SDS011;15510;52.512;13.300;2022-11-20T04:53:47;16.10;;;11.33;;
28245;SDS011;15510;52.512;13.300;2022-11-20T04:56:13;15.63;;;11.07;;
28245;SDS011;15510;52.512;13.300;2022-11-20T04:58:40;19.67;;;12.07;;
28245;SDS011;15510;52.512;13.300;2022-11-20T05:01:07;15.80;;;11.17;;
28245;SDS011;15510;52.512;13.300;2022-11-20T05:03:35;17.47;;;11.60;;
28245;SDS011;15510;52.512;13.300;2022-11-20T05:06:01;19.13;;;12.80;;
28245;SDS011;15510;52.512;13.300;2022-11-20T05:08:28;16.03;;;12.10;;
28245;SDS011;15510;52.512;13.300;2022-11-20T05:10:58;16.50;;;11.47;;
28245;SDS011;15510;52.512;13.300;2022-11-20T05:13:31;21.03;;;12.30;;
28245;SDS011;15510;52.512;13.300;2022-11-20T05:16:01;18.50;;;12.27;;
28245;SDS011;15510;52.512;13.300;2022-11-20T05:18:28;17.43;;;11.87;;
28245;SDS011;15510;52.512;13.300;2022-11-20T05:20:57;16.80;;;11.60;;
28245;SDS011;15510;52.512;13.300;2022-11-20T05:23:23;17.00;;;11.70;;
28245;SDS011;15510;52.512;13.300;2022-11-20T05:28:19;22.17;;;11.73;;
28245;SDS011;15510;52.512;13.300;2022-11-20T05:30:45;19.90;;;12.97;;
28245;SDS011;15510;52.512;13.300;2022-11-20T05:33:10;17.03;;;11.63;;
28245;SDS011;15510;52.512;13.300;2022-11-20T05:35:36;16.73;;;11.60;;
28245;SDS011;15510;52.512;13.300;2022-11-20T05:38:02;19.50;;;11.87;;
28245;SDS011;15510;52.512;13.300;2022-11-20T05:40:27;16.63;;;11.33;;
28245;SDS011;15510;52.512;13.300;2022-11-20T05:42:53;15.83;;;11.43;;
28245;SDS011;15510;52.512;13.300;2022-11-20T05:45:19;19.13;;;11.37;;
28245;SDS011;15510;52.512;13.300;2022-11-20T05:47:44;17.07;;;11.63;;
28245;SDS011;15510;52.512;13.300;2022-11-20T05:50:10;19.43;;;11.50;;
28245;SDS011;15510;52.512;13.300;2022-11-20T05:52:36;18.10;;;11.97;;
28245;SDS011;15510;52.512;13.300;2022-11-20T05:55:01;15.67;;;11.30;;
28245;SDS011;15510;52.512;13.300;2022-11-20T05:57:27;17.30;;;11.73;;
28245;SDS011;15510;52.512;13.300;2022-11-20T05:59:53;16.80;;;11.20;;
28245;SDS011;15510;52.512;13.300;2022-11-20T06:02:19;19.77;;;11.53;;
28245;SDS011;15510;52.512;13.300;2022-11-20T06:04:44;20.50;;;11.47;;
28245;SDS011;15510;52.512;13.300;2022-11-20T06:07:10;15.03;;;11.67;;
28245;SDS011;15510;52.512;13.300;2022-11-20T06:09:36;16.47;;;11.37;;
28245;SDS011;15510;52.512;13.300;2022-11-20T06:12:01;15.47;;;10.63;;
28245;SDS011;15510;52.512;13.300;2022-11-20T06:14:27;17.93;;;11.70;;
28245;SDS011;15510;52.512;13.300;2022-11-20T06:16:53;14.87;;;11.03;;
28245;SDS011;15510;52.512;13.300;2022-11-20T06:19:19;19.93;;;12.17;;
28245;SDS011;15510;52.512;13.300;2022-11-20T06:21:44;18.00;;;11.87;;
28245;SDS011;15510;52.512;13.300;2022-11-20T06:24:12;18.17;;;11.53;;
28245;SDS011;15510;52.512;13.300;2022-11-20T06:26:38;17.73;;;11.90;;
28245;SDS011;15510;52.512;13.300;2022-11-20T06:29:04;17.37;;;12.47;;
28245;SDS011;15510;52.512;13.300;2022-11-20T06:31:29;18.00;;;12.27;;
28245;SDS011;15510;52.512;13.300;2022-11-20T06:33:57;18.53;;;11.80;;
28245;SDS011;15510;52.512;13.300;2022-11-20T06:36:23;20.23;;;11.60;;
28245;SDS011;15510;52.512;13.300;2022-11-20T06:38:49;20.10;;;11.83;;
28245;SDS011;15510;52.512;13.300;2022-11-20T06:41:16;18.00;;;11.73;;
28245;SDS011;15510;52.512;13.300;2022-11-20T06:43:43;16.20;;;11.80;;
28245;SDS011;15510;52.512;13.300;2022-11-20T06:46:10;17.03;;;11.47;;
28245;SDS011;15510;52.512;13.300;2022-11-20T06:48:36;16.93;;;11.73;;
28245;SDS011;15510;52.512;13.300;2022-11-20T06:51:02;16.93;;;12.10;;
28245;SDS011;15510;52.512;13.300;2022-11-20T06:53:29;16.97;;;10.97;;
28245;SDS011;15510;52.512;13.300;2022-11-20T06:55:55;17.40;;;11.70;;
28245;SDS011;15510;52.512;13.300;2022-11-20T06:58:22;17.03;;;11.47;;
28245;SDS011;15510;52.512;13.300;2022-11-20T07:00:50;21.60;;;12.50;;
28245;SDS011;15510;52.512;13.300;2022-11-20T07:03:16;20.33;;;12.63;;
28245;SDS011;15510;52.512;13.300;2022-11-20T07:05:42;17.97;;;12.13;;
28245;SDS011;15510;52.512;13.300;2022-11-20T07:08:08;18.37;;;12.50;;
28245;SDS011;15510;52.512;13.300;2022-11-20T07:10:34;16.47;;;11.30;;
28245;SDS011;15510;52.512;13.300;2022-11-20T07:13:00;16.87;;;11.97;;
28245;SDS011;15510;52.512;13.300;2022-11-20T07:15:26;18.37;;;12.90;;
28245;SDS011;15510;52.512;13.300;2022-11-20T07:17:52;18.63;;;12.70;;
28245;SDS011;15510;52.512;13.300;2022-11-20T07:20:17;17.47;;;11.63;;
28245;SDS011;15510;52.512;13.300;2022-11-20T07:22:43;17.93;;;12.20;;
28245;SDS011;15510;52.512;13.300;2022-11-20T07:25:09;17.97;;;12.57;;
28245;SDS011;15510;52.512;13.300;2022-11-20T07:27:35;16.70;;;11.80;;
28245;SDS011;15510;52.512;13.300;2022-11-20T07:30:01;22.87;;;12.87;;
28245;SDS011;15510;52.512;13.300;2022-11-20T07:32:28;18.83;;;12.37;;
28245;SDS011;15510;52.512;13.300;2022-11-20T07:34:53;18.87;;;12.43;;
28245;SDS011;15510;52.512;13.300;2022-11-20T07:37:19;18.53;;;12.83;;
28245;SDS011;15510;52.512;13.300;2022-11-20T07:39:45;18.30;;;12.47;;
28245;SDS011;15510;52.512;13.300;2022-11-20T07:42:10;20.43;;;13.10;;
28245;SDS011;15510;52.512;13.300;2022-11-20T07:44:37;20.53;;;12.47;;
28245;SDS011;15510;52.512;13.300;2022-11-20T07:47:03;17.30;;;10.83;;
28245;SDS011;15510;52.512;13.300;2022-11-20T07:49:29;19.93;;;12.70;;
28245;SDS011;15510;52.512;13.300;2022-11-20T07:51:55;17.87;;;12.93;;
28245;SDS011;15510;52.512;13.300;2022-11-20T07:54:22;19.63;;;12.83;;
28245;SDS011;15510;52.512;13.300;2022-11-20T07:56:48;22.27;;;12.90;;
28245;SDS011;15510;52.512;13.300;2022-11-20T07:59:14;20.57;;;12.70;;
28245;SDS011;15510;52.512;13.300;2022-11-20T08:01:43;19.20;;;13.13;;
28245;SDS011;15510;52.512;13.300;2022-11-20T08:04:09;19.30;;;12.77;;
28245;SDS011;15510;52.512;13.300;2022-11-20T08:06:35;17.33;;;11.63;;
28245;SDS011;15510;52.512;13.300;2022-11-20T08:09:01;19.73;;;13.13;;
28245;SDS011;15510;52.512;13.300;2022-11-20T08:11:28;18.83;;;12.43;;
28245;SDS011;15510;52.512;13.300;2022-11-20T08:14:12;17.10;;;12.27;;
28245;SDS011;15510;52.512;13.300;2022-11-20T08:16:48;19.03;;;12.70;;
28245;SDS011;15510;52.512;13.300;2022-11-20T08:19:16;20.47;;;13.00;;
28245;SDS011;15510;52.512;13.300;2022-11-20T08:21:43;17.73;;;12.10;;
28245;SDS011;15510;52.512;13.300;2022-11-20T08:24:10;16.67;;;11.67;;
28245;SDS011;15510;52.512;13.300;2022-11-20T08:26:37;20.40;;;12.13;;
28245;SDS011;15510;52.512;13.300;2022-11-20T08:29:03;18.03;;;12.17;;
28245;SDS011;15510;52.512;13.300;2022-11-20T08:31:29;18.27;;;12.63;;
28245;SDS011;15510;52.512;13.300;2022-11-20T08:33:55;18.53;;;11.57;;
28245;SDS011;15510;52.512;13.300;2022-11-20T08:36:21;18.43;;;12.87;;
28245;SDS011;15510;52.512;13.300;2022-11-20T08:38:52;23.43;;;13.70;;
28245;SDS011;15510;52.512;13.300;2022-11-20T08:41:19;18.33;;;12.23;;
28245;SDS011;15510;52.512;13.300;2022-11-20T08:43:49;17.93;;;12.33;;
28245;SDS011;15510;52.512;13.300;2022-11-20T08:46:15;20.70;;;13.40;;
28245;SDS011;15510;52.512;13.300;2022-11-20T08:48:41;18.23;;;12.70;;
28245;SDS011;15510;52.512;13.300;2022-11-20T08:51:07;21.57;;;12.50;;
28245;SDS011;15510;52.512;13.300;2022-11-20T08:53:33;19.33;;;12.60;;
28245;SDS011;15510;52.512;13.300;2022-11-20T08:55:59;18.33;;;12.17;;
28245;SDS011;15510;52.512;13.300;2022-11-20T08:58:25;19.77;;;12.97;;
28245;SDS011;15510;52.512;13.300;2022-11-20T09:00:51;20.20;;;12.23;;
28245;SDS011;15510;52.512;13.300;2022-11-20T09:03:17;19.37;;;11.83;;
28245;SDS011;15510;52.512;13.300;2022-11-20T09:05:43;17.37;;;11.60;;
28245;SDS011;15510;52.512;13.300;2022-11-20T09:08:09;18.53;;;12.20;;
28245;SDS011;15510;52.512;13.300;2022-11-20T09:10:35;18.47;;;12.60;;
28245;SDS011;15510;52.512;13.300;2022-11-20T09:13:01;19.00;;;13.37;;
28245;SDS011;15510;52.512;13.300;2022-11-20T09:15:27;17.47;;;11.97;;
28245;SDS011;15510;52.512;13.300;2022-11-20T09:17:57;17.70;;;12.73;;
28245;SDS011;15510;52.512;13.300;2022-11-20T09:20:25;16.53;;;11.47;;
28245;SDS011;15510;52.512;13.300;2022-11-20T09:22:53;18.37;;;12.37;;
28245;SDS011;15510;52.512;13.300;2022-11-20T09:25:19;17.97;;;12.20;;
28245;SDS011;15510;52.512;13.300;2022-11-20T09:27:45;22.40;;;13.57;;
28245;SDS011;15510;52.512;13.300;2022-11-20T09:30:12;18.57;;;12.20;;
28245;SDS011;15510;52.512;13.300;2022-11-20T09:32:38;16.57;;;11.53;;
28245;SDS011;15510;52.512;13.300;2022-11-20T09:35:04;19.87;;;11.73;;
28245;SDS011;15510;52.512;13.300;2022-11-20T09:37:30;19.07;;;11.87;;
28245;SDS011;15510;52.512;13.300;2022-11-20T09:39:56;19.13;;;12.37;;
28245;SDS011;15510;52.512;13.300;2022-11-20T09:50:36;17.07;;;11.30;;
28245;SDS011;15510;52.512;13.300;2022-11-20T09:53:30;18.30;;;12.07;;
28245;SDS011;15510;52.512;13.300;2022-11-20T09:56:11;16.90;;;11.17;;
28245;SDS011;15510;52.512;13.300;2022-11-20T10:01:12;17.10;;;11.20;;
28245;SDS011;15510;52.512;13.300;2022-11-20T10:06:21;17.93;;;10.97;;
28245;SDS011;15510;52.512;13.300;2022-11-20T10:25:27;21.50;;;11.40;;
28245;SDS011;15510;52.512;13.300;2022-11-20T10:31:07;16.00;;;11.30;;
28245;SDS011;15510;52.512;13.300;2022-11-20T10:33:42;14.93;;;11.00;;
28245;SDS011;15510;52.512;13.300;2022-11-20T10:38:44;17.90;;;11.63;;
28245;SDS011;15510;52.512;13.300;2022-11-20T10:41:16;18.50;;;12.20;;
28245;SDS011;15510;52.512;13.300;2022-11-20T10:43:52;16.10;;;11.43;;
28245;SDS011;15510;52.512;13.300;2022-11-20T10:46:25;15.43;;;11.00;;
28245;SDS011;15510;52.512;13.300;2022-11-20T10:48:59;16.27;;;10.90;;
28245;SDS011;15510;52.512;13.300;2022-11-20T10:56:46;17.47;;;12.40;;
28245;SDS011;15510;52.512;13.300;2022-11-20T11:01:54;21.27;;;11.37;;
28245;SDS011;15510;52.512;13.300;2022-11-20T11:04:40;15.97;;;11.13;;
28245;SDS011;15510;52.512;13.300;2022-11-20T11:07:30;15.23;;;10.67;;
28245;SDS011;15510;52.512;13.300;2022-11-20T11:10:01;14.30;;;10.93;;
28245;SDS011;15510;52.512;13.300;2022-11-20T11:12:37;12.80;;;9.87;;
28245;SDS011;15510;52.512;13.300;2022-11-20T11:15:11;14.20;;;10.20;;
28245;SDS011;15510;52.512;13.300;2022-11-20T11:17:46;13.23;;;9.87;;
28245;SDS011;15510;52.512;13.300;2022-11-20T11:22:50;15.13;;;9.90;;
28245;SDS011;15510;52.512;13.300;2022-11-20T11:25:18;11.13;;;8.60;;
28245;SDS011;15510;52.512;13.300;2022-11-20T11:28:19;12.57;;;8.73;;
28245;SDS011;15510;52.512;13.300;2022-11-20T11:30:47;11.17;;;8.87;;
28245;SDS011;15510;52.512;13.300;2022-11-20T11:33:20;17.30;;;11.80;;
28245;SDS011;15510;52.512;13.300;2022-11-20T11:35:54;11.73;;;9.13;;
28245;SDS011;15510;52.512;13.300;2022-11-20T11:40:59;13.33;;;9.10;;
28245;SDS011;15510;52.512;13.300;2022-11-20T11:43:26;12.70;;;8.30;;
28245;SDS011;15510;52.512;13.300;2022-11-20T11:54:51;12.00;;;7.90;;
28245;SDS011;15510;52.512;13.300;2022-11-20T11:59:55;11.27;;;7.77;;
28245;SDS011;15510;52.512;13.300;2022-11-20T12:16:05;12.57;;;8.77;;
28245;SDS011;15510;52.512;13.300;2022-11-20T12:18:35;14.50;;;8.40;;
28245;SDS011;15510;52.512;13.300;2022-11-20T12:26:03;8.80;;;7.30;;
28245;SDS011;15510;52.512;13.300;2022-11-20T12:29:06;11.33;;;7.60;;
28245;SDS011;15510;52.512;13.300;2022-11-20T12:34:51;9.47;;;7.20;;
28245;SDS011;15510;52.512;13.300;2022-11-20T12:37:39;9.67;;;7.03;;
28245;SDS011;15510;52.512;13.300;2022-11-20T12:43:29;12.00;;;8.03;;
28245;SDS011;15510;52.512;13.300;2022-11-20T12:46:24;14.03;;;8.20;;
28245;SDS011;15510;52.512;13.300;2022-11-20T13:06:22;8.97;;;7.23;;
28245;SDS011;15510;52.512;13.300;2022-11-20T13:13:42;21.50;;;13.87;;
28245;SDS011;15510;52.512;13.300;2022-11-20T13:17:00;16.47;;;10.77;;
28245;SDS011;15510;52.512;13.300;2022-11-20T13:19:22;16.67;;;10.93;;
28245;SDS011;15510;52.512;13.300;2022-11-20T13:21:48;20.60;;;12.23;;
28245;SDS011;15510;52.512;13.300;2022-11-20T13:26:44;20.23;;;15.03;;
28245;SDS011;15510;52.512;13.300;2022-11-20T13:29:17;15.00;;;10.40;;
28245;SDS011;15510;52.512;13.300;2022-11-20T13:31:44;14.13;;;9.97;;
28245;SDS011;15510;52.512;13.300;2022-11-20T13:34:25;12.77;;;9.07;;
28245;SDS011;15510;52.512;13.300;2022-11-20T13:36:52;10.87;;;8.17;;
28245;SDS011;15510;52.512;13.300;2022-11-20T13:39:27;14.50;;;9.40;;
28245;SDS011;15510;52.512;13.300;2022-11-20T13:41:55;12.10;;;8.83;;
28245;SDS011;15510;52.512;13.300;2022-11-20T13:44:37;10.83;;;7.90;;
28245;SDS011;15510;52.512;13.300;2022-11-20T13:47:23;10.63;;;7.97;;
28245;SDS011;15510;52.512;13.300;2022-11-20T13:49:51;9.20;;;6.80;;
28245;SDS011;15510;52.512;13.300;2022-11-20T14:00:17;9.20;;;6.93;;
28245;SDS011;15510;52.512;13.300;2022-11-20T14:03:01;10.93;;;8.53;;
28245;SDS011;15510;52.512;13.300;2022-11-20T14:05:31;11.87;;;8.50;;
28245;SDS011;15510;52.512;13.300;2022-11-20T14:08:06;12.67;;;9.23;;
28245;SDS011;15510;52.512;13.300;2022-11-20T14:10:38;19.63;;;13.20;;
28245;SDS011;15510;52.512;13.300;2022-11-20T14:13:20;27.27;;;15.37;;
28245;SDS011;15510;52.512;13.300;2022-11-20T14:15:45;15.77;;;10.73;;
28245;SDS011;15510;52.512;13.300;2022-11-20T14:18:18;24.70;;;13.90;;
28245;SDS011;15510;52.512;13.300;2022-11-20T14:20:46;62.23;;;37.13;;
28245;SDS011;15510;52.512;13.300;2022-11-20T14:23:22;43.00;;;26.63;;
28245;SDS011;15510;52.512;13.300;2022-11-20T14:25:53;31.80;;;20.53;;
28245;SDS011;15510;52.512;13.300;2022-11-20T14:28:21;10.57;;;7.90;;
28245;SDS011;15510;52.512;13.300;2022-11-20T14:30:51;12.40;;;7.90;;
28245;SDS011;15510;52.512;13.300;2022-11-20T14:33:17;11.60;;;8.13;;
28245;SDS011;15510;52.512;13.300;2022-11-20T14:35:48;11.83;;;7.93;;
28245;SDS011;15510;52.512;13.300;2022-11-20T14:38:16;11.40;;;7.47;;
28245;SDS011;15510;52.512;13.300;2022-11-20T14:40:44;8.63;;;7.00;;
28245;SDS011;15510;52.512;13.300;2022-11-20T14:43:24;9.87;;;7.57;;
28245;SDS011;15510;52.512;13.300;2022-11-20T14:46:00;10.17;;;7.83;;
28245;SDS011;15510;52.512;13.300;2022-11-20T14:49:17;11.77;;;8.73;;
28245;SDS011;15510;52.512;13.300;2022-11-20T14:54:07;19.13;;;11.50;;
28245;SDS011;15510;52.512;13.300;2022-11-20T14:59:26;10.97;;;7.97;;
28245;SDS011;15510;52.512;13.300;2022-11-20T15:02:08;11.00;;;7.73;;
28245;SDS011;15510;52.512;13.300;2022-11-20T15:04:49;11.83;;;7.93;;
28245;SDS011;15510;52.512;13.300;2022-11-20T15:08:07;12.53;;;9.00;;
28245;SDS011;15510;52.512;13.300;2022-11-20T15:12:54;9.33;;;7.37;;
28245;SDS011;15510;52.512;13.300;2022-11-20T15:15:46;11.33;;;8.37;;
28245;SDS011;15510;52.512;13.300;2022-11-20T15:18:15;16.93;;;11.13;;
28245;SDS011;15510;52.512;13.300;2022-11-20T15:20:49;14.93;;;10.67;;
28245;SDS011;15510;52.512;13.300;2022-11-20T15:23:16;15.17;;;11.27;;
28245;SDS011;15510;52.512;13.300;2022-11-20T15:25:46;14.13;;;8.87;;
28245;SDS011;15510;52.512;13.300;2022-11-20T15:28:16;15.10;;;9.70;;
28245;SDS011;15510;52.512;13.300;2022-11-20T15:30:47;12.63;;;8.97;;
28245;SDS011;15510;52.512;13.300;2022-11-20T15:33:14;13.03;;;10.10;;
28245;SDS011;15510;52.512;13.300;2022-11-20T15:35:40;16.87;;;10.23;;
28245;SDS011;15510;52.512;13.300;2022-11-20T15:38:06;12.43;;;8.77;;
28245;SDS011;15510;52.512;13.300;2022-11-20T15:40:32;20.77;;;13.90;;
28245;SDS011;15510;52.512;13.300;2022-11-20T15:42:58;16.47;;;11.73;;
28245;SDS011;15510;52.512;13.300;2022-11-20T15:45:38;13.80;;;9.70;;
28245;SDS011;15510;52.512;13.300;2022-11-20T15:48:11;16.30;;;11.30;;
28245;SDS011;15510;52.512;13.300;2022-11-20T15:50:51;33.50;;;21.50;;
28245;SDS011;15510;52.512;13.300;2022-11-20T15:53:24;12.83;;;9.80;;
28245;SDS011;15510;52.512;13.300;2022-11-20T15:55:49;20.30;;;14.00;;
28245;SDS011;15510;52.512;13.300;2022-11-20T15:58:15;33.70;;;21.17;;
28245;SDS011;15510;52.512;13.300;2022-11-20T16:00:42;21.23;;;14.43;;
28245;SDS011;15510;52.512;13.300;2022-11-20T16:03:11;14.20;;;10.03;;
28245;SDS011;15510;52.512;13.300;2022-11-20T16:05:38;21.27;;;13.90;;
28245;SDS011;15510;52.512;13.300;2022-11-20T16:08:04;21.83;;;13.37;;
28245;SDS011;15510;52.512;13.300;2022-11-20T16:10:30;25.73;;;14.70;;
28245;SDS011;15510;52.512;13.300;2022-11-20T16:12:55;22.67;;;14.43;;
28245;SDS011;15510;52.512;13.300;2022-11-20T16:15:40;25.17;;;16.77;;
28245;SDS011;15510;52.512;13.300;2022-11-20T16:18:21;17.03;;;11.30;;
28245;SDS011;15510;52.512;13.300;2022-11-20T16:20:49;19.87;;;13.93;;
28245;SDS011;15510;52.512;13.300;2022-11-20T16:23:16;14.17;;;10.13;;
28245;SDS011;15510;52.512;13.300;2022-11-20T16:25:42;20.87;;;13.07;;
28245;SDS011;15510;52.512;13.300;2022-11-20T16:28:08;15.53;;;10.57;;
28245;SDS011;15510;52.512;13.300;2022-11-20T16:30:34;21.40;;;13.57;;
28245;SDS011;15510;52.512;13.300;2022-11-20T16:33:01;14.93;;;10.27;;
28245;SDS011;15510;52.512;13.300;2022-11-20T16:35:28;16.57;;;9.17;;